createdAt,value
2022-09-17T00:01:24.957Z,1.67
2022-09-17T00:04:00.209Z,1.70
2022-09-17T00:06:27.738Z,1.70
2022-09-17T00:08:55.098Z,1.63
2022-09-17T00:11:27.054Z,1.57
2022-09-17T00:13:55.079Z,1.90
2022-09-17T00:16:35.809Z,1.70
2022-09-17T00:19:06.354Z,1.57
2022-09-17T00:21:33.085Z,1.50
2022-09-17T00:24:03.362Z,1.80
2022-09-17T00:26:32.566Z,1.67
2022-09-17T00:29:01.258Z,1.60
2022-09-17T00:31:29.984Z,1.60
2022-09-17T00:33:59.257Z,1.40
2022-09-17T00:36:26.383Z,1.40
2022-09-17T00:38:56.548Z,1.40
2022-09-17T00:41:29.614Z,1.40
2022-09-17T00:44:00.743Z,1.90
2022-09-17T00:46:40.482Z,1.70
2022-09-17T00:49:23.396Z,1.80
2022-09-17T00:52:15.564Z,1.43
2022-09-17T00:54:52.321Z,1.80
2022-09-17T00:57:19.617Z,1.70
2022-09-17T00:59:46.559Z,2.00
2022-09-17T01:02:13.489Z,2.00
2022-09-17T01:04:40.498Z,2.00
2022-09-17T01:07:43.054Z,2.13
2022-09-17T01:10:40.145Z,1.97
2022-09-17T01:13:37.128Z,2.17
2022-09-17T01:16:44.741Z,2.03
2022-09-17T01:20:11.858Z,2.10
2022-09-17T01:23:15.898Z,2.43
2022-09-17T01:26:04.502Z,2.73
2022-09-17T01:28:46.979Z,2.53
2022-09-17T01:31:35.798Z,2.47
2022-09-17T01:34:22.018Z,2.90
2022-09-17T01:37:04.308Z,2.77
2022-09-17T01:39:54.017Z,2.30
2022-09-17T01:42:35.099Z,2.57
2022-09-17T01:45:10.118Z,2.57
2022-09-17T01:48:25.600Z,2.60
2022-09-17T01:50:59.382Z,2.63
2022-09-17T01:53:36.603Z,2.67
2022-09-17T01:56:05.778Z,2.73
2022-09-17T01:58:42.598Z,2.90
2022-09-17T02:01:13.764Z,2.97
2022-09-17T02:03:49.760Z,2.90
2022-09-17T02:06:24.310Z,2.73
2022-09-17T02:09:26.546Z,2.80
2022-09-17T02:11:58.877Z,3.10
2022-09-17T02:14:36.714Z,2.57
2022-09-17T02:17:16.614Z,3.00
2022-09-17T02:19:44.175Z,3.20
2022-09-17T02:22:27.801Z,2.83
2022-09-17T02:25:14.514Z,3.07
2022-09-17T02:28:03.406Z,3.17
2022-09-17T02:30:32.019Z,2.90
2022-09-17T02:33:03.049Z,2.87
2022-09-17T02:35:32.172Z,2.90
2022-09-17T02:38:00.044Z,3.03
2022-09-17T02:40:34.506Z,2.90
2022-09-17T02:43:28.414Z,2.90
2022-09-17T02:46:26.181Z,2.70
2022-09-17T02:49:31.769Z,2.70
2022-09-17T02:52:22.301Z,3.10
2022-09-17T02:55:24.595Z,2.90
2022-09-17T02:58:26.788Z,3.30
2022-09-17T03:00:59.820Z,2.77
2022-09-17T03:03:37.605Z,3.03
2022-09-17T03:06:05.737Z,3.53
2022-09-17T03:08:38.001Z,3.23
2022-09-17T03:11:05.842Z,3.20
2022-09-17T03:13:32.583Z,2.80
2022-09-17T03:15:59.407Z,2.90
2022-09-17T03:18:26.137Z,2.50
2022-09-17T03:20:52.849Z,2.70
2022-09-17T03:23:19.534Z,2.83
2022-09-17T03:25:48.013Z,2.90
2022-09-17T03:28:14.743Z,3.23
2022-09-17T03:30:43.428Z,2.93
2022-09-17T03:33:10.473Z,2.43
2022-09-17T03:35:37.656Z,3.07
2022-09-17T03:38:04.501Z,2.50
2022-09-17T03:40:31.244Z,2.67
2022-09-17T03:42:57.991Z,2.77
2022-09-17T03:45:24.771Z,3.10
2022-09-17T03:47:51.468Z,3.10
2022-09-17T03:50:18.220Z,3.00
2022-09-17T03:52:44.984Z,3.03
2022-09-17T03:55:11.835Z,3.17
2022-09-17T03:57:38.535Z,2.87
2022-09-17T04:00:06.777Z,2.60
2022-09-17T04:02:34.141Z,2.93
2022-09-17T04:05:00.944Z,2.67
2022-09-17T04:07:27.818Z,2.27
2022-09-17T04:09:54.523Z,2.97
2022-09-17T04:12:21.340Z,2.70
2022-09-17T04:14:48.202Z,2.80
2022-09-17T04:17:18.084Z,2.37
2022-09-17T04:19:45.252Z,2.47
2022-09-17T04:22:12.274Z,2.40
2022-09-17T04:24:38.957Z,2.20
2022-09-17T04:27:05.710Z,3.00
2022-09-17T04:29:32.429Z,2.20
2022-09-17T04:31:59.133Z,2.77
2022-09-17T04:34:25.859Z,2.30
2022-09-17T04:36:53.091Z,2.27
2022-09-17T04:39:19.786Z,3.03
2022-09-17T04:41:47.163Z,2.43
2022-09-17T04:44:13.866Z,2.20
2022-09-17T04:46:40.738Z,2.60
2022-09-17T04:49:08.667Z,2.23
2022-09-17T04:51:35.379Z,2.40
2022-09-17T04:54:02.146Z,2.47
2022-09-17T04:56:28.878Z,2.10
2022-09-17T04:58:55.665Z,3.00
2022-09-17T05:01:22.500Z,2.40
2022-09-17T05:03:49.978Z,2.33
2022-09-17T05:06:16.686Z,2.60
2022-09-17T05:08:43.378Z,2.57
2022-09-17T05:11:10.061Z,2.63
2022-09-17T05:13:36.762Z,2.57
2022-09-17T05:16:03.558Z,2.60
2022-09-17T05:18:30.269Z,2.33
2022-09-17T05:20:56.967Z,2.73
2022-09-17T05:23:23.896Z,2.70
2022-09-17T05:25:50.719Z,2.93
2022-09-17T05:28:17.413Z,2.43
2022-09-17T05:30:44.168Z,2.00
2022-09-17T05:33:10.906Z,2.20
2022-09-17T05:48:38.530Z,1.90
2022-09-17T05:51:05.419Z,1.80
2022-09-17T05:53:32.143Z,2.23
2022-09-17T05:55:59.609Z,2.17
2022-09-17T05:58:27.075Z,2.20
2022-09-17T06:00:53.899Z,2.00
2022-09-17T06:03:24.749Z,1.83
2022-09-17T06:05:55.319Z,1.60
2022-09-17T06:08:23.070Z,1.93
2022-09-17T06:10:50.180Z,1.77
2022-09-17T06:13:18.512Z,1.70
2022-09-17T06:15:53.594Z,1.33
2022-09-17T06:18:21.150Z,1.80
2022-09-17T06:20:59.412Z,1.40
2022-09-17T06:23:27.746Z,1.63
2022-09-17T06:25:59.741Z,1.53
2022-09-17T06:28:27.820Z,1.43
2022-09-17T06:30:57.068Z,1.43
2022-09-17T06:33:24.129Z,1.40
2022-09-17T06:36:00.108Z,1.60
2022-09-17T06:38:32.471Z,1.30
2022-09-17T06:40:59.543Z,1.70
2022-09-17T06:43:26.543Z,1.47
2022-09-17T06:45:54.105Z,1.67
2022-09-17T06:48:22.311Z,1.47
2022-09-17T06:50:50.672Z,1.40
2022-09-17T06:53:17.603Z,1.50
2022-09-17T06:55:44.335Z,1.57
2022-09-17T06:58:11.064Z,1.60
2022-09-17T07:00:37.863Z,1.53
2022-09-17T07:03:05.070Z,1.57
2022-09-17T07:05:32.890Z,1.30
2022-09-17T07:08:05.189Z,1.70
2022-09-17T07:10:32.325Z,1.73
2022-09-17T07:12:59.332Z,1.67
2022-09-17T07:15:26.294Z,1.50
2022-09-17T07:17:53.471Z,1.40
2022-09-17T07:20:20.198Z,1.40
2022-09-17T07:22:56.498Z,1.70
2022-09-17T07:25:25.754Z,1.70
2022-09-17T07:27:53.168Z,1.70
2022-09-17T07:30:21.191Z,1.70
2022-09-17T07:32:47.986Z,1.70
2022-09-17T07:35:14.707Z,1.93
2022-09-17T07:37:41.415Z,2.10
2022-09-17T07:40:08.974Z,2.03
2022-09-17T07:42:35.979Z,1.80
2022-09-17T07:45:02.717Z,1.80
2022-09-17T07:47:29.530Z,1.90
2022-09-17T07:49:56.269Z,1.90
2022-09-17T07:52:22.969Z,2.20
2022-09-17T07:54:49.684Z,2.27
2022-09-17T07:57:16.557Z,2.30
2022-09-17T07:59:43.286Z,1.93
2022-09-17T08:02:14.149Z,2.33
2022-09-17T08:04:43.775Z,2.87
2022-09-17T08:07:13.811Z,2.50
2022-09-17T08:09:40.503Z,2.40
2022-09-17T08:12:07.662Z,2.40
2022-09-17T08:14:34.356Z,2.50
2022-09-17T08:17:01.140Z,2.33
2022-09-17T08:19:31.871Z,2.30
2022-09-17T08:21:58.670Z,2.80
2022-09-17T08:24:25.666Z,2.60
2022-09-17T08:26:52.445Z,2.73
2022-09-17T08:29:19.394Z,3.00
2022-09-17T08:31:46.172Z,2.73
2022-09-17T08:34:13.273Z,2.73
2022-09-17T08:36:40.066Z,2.67
2022-09-17T08:39:06.871Z,3.40
2022-09-17T08:41:52.366Z,2.83
2022-09-17T08:44:41.621Z,2.80
2022-09-17T08:47:30.965Z,2.47
2022-09-17T08:50:13.969Z,2.37
2022-09-17T08:53:02.653Z,2.90
2022-09-17T08:56:18.967Z,2.73
2022-09-17T08:59:21.703Z,2.67
2022-09-17T09:02:00.510Z,3.13
2022-09-17T09:05:02.423Z,2.80
2022-09-17T09:07:43.357Z,2.93
2022-09-17T09:10:44.253Z,2.70
2022-09-17T09:13:17.030Z,3.10
2022-09-17T09:16:00.594Z,2.60
2022-09-17T09:18:36.721Z,2.90
2022-09-17T09:21:28.572Z,2.93
2022-09-17T09:24:23.045Z,2.80
2022-09-17T09:27:17.787Z,2.60
2022-09-17T09:30:14.723Z,2.90
2022-09-17T09:33:18.353Z,3.00
2022-09-17T09:35:45.414Z,3.03
2022-09-17T09:38:43.331Z,3.00
2022-09-17T09:41:26.771Z,2.43
2022-09-17T09:44:05.758Z,2.53
2022-09-17T09:47:13.155Z,2.87
2022-09-17T09:50:17.698Z,2.60
2022-09-17T09:53:13.406Z,2.60
2022-09-17T09:56:30.971Z,2.70
2022-09-17T09:58:57.682Z,2.23
2022-09-17T10:01:29.921Z,2.33
2022-09-17T10:03:58.745Z,2.70
2022-09-17T10:06:30.374Z,2.70
2022-09-17T10:08:57.062Z,2.67
2022-09-17T10:11:32.347Z,2.80
2022-09-17T10:14:34.899Z,2.57
2022-09-17T10:17:16.334Z,2.73
2022-09-17T10:19:45.019Z,2.67
2022-09-17T10:22:30.330Z,3.23
2022-09-17T10:25:00.127Z,2.70
2022-09-17T10:27:28.620Z,3.10
2022-09-17T10:30:08.021Z,2.40
2022-09-17T10:32:35.219Z,2.40
2022-09-17T10:35:24.210Z,2.50
2022-09-17T10:37:53.659Z,2.30
2022-09-17T10:40:20.386Z,2.23
2022-09-17T10:43:16.681Z,2.63
2022-09-17T10:45:56.331Z,2.70
2022-09-17T10:48:23.817Z,2.90
2022-09-17T10:50:55.628Z,2.40
2022-09-17T10:53:25.222Z,2.40
2022-09-17T10:56:22.857Z,2.00
2022-09-17T10:59:36.707Z,2.10
2022-09-17T11:02:44.260Z,2.30
2022-09-17T11:05:33.861Z,2.47
2022-09-17T11:08:35.082Z,3.13
2022-09-17T11:11:24.148Z,1.90
2022-09-17T11:14:20.246Z,2.30
2022-09-17T11:17:37.702Z,3.00
2022-09-17T11:20:12.918Z,2.30
2022-09-17T11:23:18.034Z,2.30
2022-09-17T11:26:03.046Z,2.43
2022-09-17T11:29:02.296Z,2.03
2022-09-17T11:31:56.530Z,2.90
2022-09-17T11:34:56.691Z,2.80
2022-09-17T11:38:02.371Z,2.37
2022-09-17T11:41:06.064Z,2.63
2022-09-17T11:43:48.993Z,1.90
2022-09-17T11:46:24.919Z,2.50
2022-09-17T11:49:11.527Z,1.87
2022-09-17T11:51:48.840Z,2.03
2022-09-17T11:54:19.280Z,1.97
2022-09-17T11:56:52.637Z,1.90
2022-09-17T11:59:53.368Z,2.27
2022-09-17T12:03:06.732Z,1.97
2022-09-17T12:05:56.910Z,2.17
2022-09-17T12:08:42.638Z,1.93
2022-09-17T12:11:21.158Z,2.23
2022-09-17T12:13:57.399Z,1.97
2022-09-17T12:16:26.930Z,2.17
2022-09-17T12:19:22.668Z,2.30
2022-09-17T12:21:56.640Z,1.93
2022-09-17T12:24:32.036Z,2.07
2022-09-17T12:27:19.110Z,2.17
2022-09-17T12:30:05.227Z,2.40
2022-09-17T12:33:19.630Z,2.27
2022-09-17T12:36:23.954Z,2.20
2022-09-17T12:39:05.531Z,2.10
2022-09-17T12:42:04.927Z,2.20
2022-09-17T12:45:04.936Z,2.40
2022-09-17T12:47:51.179Z,2.47
2022-09-17T12:50:38.219Z,2.53
2022-09-17T12:53:39.809Z,2.00
2022-09-17T12:56:14.678Z,2.63
2022-09-17T12:59:14.426Z,2.07
2022-09-17T13:02:04.447Z,2.37
2022-09-17T13:05:30.775Z,2.00
2022-09-17T13:08:44.418Z,1.90
2022-09-17T13:11:41.691Z,2.13
2022-09-17T13:14:42.147Z,2.50
2022-09-17T13:17:34.182Z,2.40
2022-09-17T13:20:17.964Z,2.13
2022-09-17T13:22:49.003Z,2.50
2022-09-17T13:25:19.215Z,2.27
2022-09-17T13:27:48.394Z,2.27
2022-09-17T13:30:18.436Z,2.07
2022-09-17T13:32:48.831Z,1.80
2022-09-17T13:35:15.440Z,2.43
2022-09-17T13:37:57.783Z,1.83
2022-09-17T13:40:27.632Z,2.10
2022-09-17T13:43:08.220Z,1.90
2022-09-17T13:46:01.030Z,1.53
2022-09-17T13:48:35.253Z,1.50
2022-09-17T13:51:29.699Z,1.13
2022-09-17T13:54:07.365Z,1.40
2022-09-17T13:56:43.104Z,1.30
2022-09-17T13:59:23.397Z,1.03
2022-09-17T14:02:07.939Z,1.43
2022-09-17T14:04:40.399Z,1.47
2022-09-17T14:07:26.278Z,1.40
2022-09-17T14:10:11.851Z,1.60
2022-09-17T14:12:41.569Z,1.70
2022-09-17T14:15:55.278Z,1.50
2022-09-17T14:18:28.110Z,1.30
2022-09-17T14:21:12.571Z,1.20
2022-09-17T14:23:54.451Z,1.57
2022-09-17T14:26:41.831Z,1.10
2022-09-17T14:29:30.185Z,0.80
2022-09-17T14:31:58.338Z,0.90
2022-09-17T14:34:28.554Z,0.93
2022-09-17T14:36:56.696Z,0.90
2022-09-17T14:39:35.097Z,1.30
2022-09-17T14:42:04.214Z,1.00
2022-09-17T14:44:34.514Z,1.00
2022-09-17T14:47:08.445Z,1.20
2022-09-17T14:49:38.310Z,1.53
2022-09-17T14:52:30.368Z,1.10
2022-09-17T14:55:25.173Z,1.20
2022-09-17T14:57:58.605Z,1.37
2022-09-17T15:00:33.987Z,1.37
2022-09-17T15:03:00.928Z,1.40
2022-09-17T15:05:43.186Z,1.70
2022-09-17T15:08:09.823Z,1.83
2022-09-17T15:10:55.234Z,1.70
2022-09-17T15:13:28.844Z,1.50
2022-09-17T15:16:12.742Z,1.50
2022-09-17T15:18:47.551Z,1.33
2022-09-17T15:21:49.113Z,1.80
2022-09-17T15:24:28.957Z,1.23
2022-09-17T15:27:00.753Z,1.60
2022-09-17T15:29:33.127Z,1.40
2022-09-17T15:32:03.762Z,1.30
2022-09-17T15:34:30.466Z,1.53
2022-09-17T15:37:17.423Z,1.47
2022-09-17T15:39:50.815Z,1.67
2022-09-17T15:42:30.802Z,1.43
2022-09-17T15:45:31.816Z,1.40
2022-09-17T15:48:00.475Z,1.30
2022-09-17T15:50:30.555Z,1.53
2022-09-17T15:53:09.159Z,1.57
2022-09-17T15:55:40.873Z,1.37
2022-09-17T15:58:28.704Z,1.63
2022-09-17T16:01:33.424Z,1.43
2022-09-17T16:04:02.897Z,2.27
2022-09-17T16:06:29.494Z,1.67
2022-09-17T16:08:59.515Z,1.63
2022-09-17T16:11:29.755Z,1.30
2022-09-17T16:13:59.867Z,1.40
2022-09-17T16:16:36.897Z,1.50
2022-09-17T16:19:06.603Z,1.53
2022-09-17T16:21:33.335Z,1.70
2022-09-17T16:24:00.053Z,1.30
2022-09-17T16:26:33.793Z,1.40
2022-09-17T16:29:12.943Z,1.80
2022-09-17T16:31:39.731Z,1.33
2022-09-17T16:34:06.460Z,1.43
2022-09-17T16:36:33.318Z,1.50
2022-09-17T16:39:01.010Z,1.50
2022-09-17T16:41:27.839Z,1.67
2022-09-17T16:43:54.538Z,1.47
2022-09-17T16:46:21.312Z,1.53
2022-09-17T16:48:51.098Z,1.60
2022-09-17T16:51:18.355Z,1.60
2022-09-17T16:53:45.640Z,1.70
2022-09-17T16:56:15.393Z,1.77
2022-09-17T16:58:42.515Z,1.90
2022-09-17T17:01:12.477Z,1.83
2022-09-17T17:03:40.012Z,3.10
2022-09-17T17:06:15.003Z,3.03
2022-09-17T17:08:41.735Z,2.10
2022-09-17T17:11:08.436Z,1.33
2022-09-17T17:13:35.399Z,1.33
2022-09-17T17:16:12.019Z,1.30
2022-09-17T17:18:38.869Z,1.60
2022-09-17T17:21:08.460Z,1.30
2022-09-17T17:23:35.633Z,1.73
2022-09-17T17:26:03.570Z,1.47
2022-09-17T17:28:35.922Z,1.77
2022-09-17T17:31:04.684Z,1.60
2022-09-17T17:33:31.919Z,1.63
2022-09-17T17:36:08.283Z,2.03
2022-09-17T17:38:36.909Z,1.70
2022-09-17T17:41:04.277Z,2.10
2022-09-17T17:43:31.036Z,1.73
2022-09-17T17:45:57.739Z,1.60
2022-09-17T17:48:24.460Z,1.53
2022-09-17T17:50:54.636Z,1.70
2022-09-17T17:53:23.481Z,1.60
2022-09-17T17:56:01.893Z,2.00
2022-09-17T17:58:29.404Z,2.07
2022-09-17T18:00:56.321Z,1.50
2022-09-17T18:03:24.907Z,1.97
2022-09-17T18:05:58.484Z,2.00
2022-09-17T18:08:25.912Z,3.80
2022-09-17T18:11:04.426Z,4.57
2022-09-17T18:13:31.559Z,3.60
2022-09-17T18:16:00.580Z,2.40
2022-09-17T18:18:42.183Z,2.27
2022-09-17T18:21:15.830Z,2.03
2022-09-17T18:23:43.925Z,2.10
2022-09-17T18:26:15.687Z,3.33
2022-09-17T18:28:43.099Z,2.97
2022-09-17T18:31:27.542Z,2.43
2022-09-17T18:34:00.825Z,2.40
2022-09-17T18:36:30.718Z,2.33
2022-09-17T18:39:24.175Z,2.60
2022-09-17T18:41:51.220Z,2.80
2022-09-17T18:44:21.365Z,2.53
2022-09-17T18:46:49.782Z,3.87
2022-09-17T18:49:16.769Z,3.40
2022-09-17T18:51:43.506Z,3.13
2022-09-17T18:54:12.700Z,2.83
2022-09-17T18:56:41.354Z,2.80
2022-09-17T18:59:08.760Z,2.93
2022-09-17T19:01:36.015Z,2.50
2022-09-17T19:04:03.642Z,2.63
2022-09-17T19:06:32.002Z,3.10
2022-09-17T19:09:06.118Z,3.10
2022-09-17T19:11:36.205Z,2.70
2022-09-17T19:14:03.331Z,2.83
2022-09-17T19:16:30.266Z,2.87
2022-09-17T19:18:57.062Z,2.73
2022-09-17T19:21:23.938Z,2.23
2022-09-17T19:23:52.229Z,2.67
2022-09-17T19:26:25.478Z,2.40
2022-09-17T19:28:54.010Z,2.37
2022-09-17T19:31:23.889Z,2.50
2022-09-17T19:33:51.505Z,2.77
2022-09-17T19:36:19.859Z,3.23
2022-09-17T19:38:48.017Z,2.87
2022-09-17T19:41:18.200Z,2.50
2022-09-17T19:43:45.379Z,2.10
2022-09-17T19:46:15.870Z,2.13
2022-09-17T19:48:47.379Z,2.27
2022-09-17T19:51:15.423Z,2.17
2022-09-17T19:53:42.345Z,1.87
2022-09-17T19:56:21.512Z,1.80
2022-09-17T19:58:48.508Z,1.90
2022-09-17T20:01:16.235Z,1.40
2022-09-17T20:03:45.003Z,1.37
2022-09-17T20:06:16.753Z,1.70
2022-09-17T20:08:53.135Z,1.57
2022-09-17T20:11:23.321Z,1.87
2022-09-17T20:13:50.751Z,1.90
2022-09-17T20:16:21.776Z,1.67
2022-09-17T20:18:50.070Z,1.50
2022-09-17T20:21:22.029Z,1.50
2022-09-17T20:23:49.216Z,1.70
2022-09-17T20:26:17.181Z,1.53
2022-09-17T20:28:44.861Z,1.60
2022-09-17T20:31:27.614Z,1.50
2022-09-17T20:34:01.152Z,1.80
2022-09-17T20:36:31.283Z,1.40
2022-09-17T20:39:21.055Z,1.70
2022-09-17T20:41:45.262Z,1.60
2022-09-17T20:44:11.978Z,1.40
2022-09-17T20:46:38.790Z,1.30
2022-09-17T20:49:05.616Z,1.40
2022-09-17T20:51:33.707Z,1.63
2022-09-17T20:54:01.539Z,1.47
2022-09-17T20:56:32.972Z,1.40
2022-09-17T20:59:14.117Z,1.83
2022-09-17T21:01:44.684Z,1.40
2022-09-17T21:04:16.556Z,1.77
2022-09-17T21:06:44.549Z,1.30
2022-09-17T21:09:16.411Z,1.60
2022-09-17T21:11:45.893Z,1.40
2022-09-17T21:14:15.149Z,1.73
2022-09-17T21:16:42.303Z,1.40
2022-09-17T21:19:11.701Z,1.80
2022-09-17T21:21:38.398Z,2.00
2022-09-17T21:24:07.355Z,1.87
2022-09-17T21:26:34.827Z,1.63
2022-09-17T21:29:01.997Z,1.20
2022-09-17T21:31:33.382Z,1.40
2022-09-17T21:34:04.143Z,1.40
2022-09-17T21:36:35.127Z,1.23
2022-09-17T21:39:05.850Z,1.67
2022-09-17T21:41:33.140Z,1.83
2022-09-17T21:44:00.029Z,2.20
2022-09-17T21:46:34.948Z,1.37
2022-09-17T21:49:04.170Z,1.70
2022-09-17T21:51:40.517Z,1.50
2022-09-17T21:54:10.682Z,1.60
2022-09-17T21:56:38.142Z,1.60
2022-09-17T21:59:13.300Z,1.77
2022-09-17T22:01:46.206Z,2.13
2022-09-17T22:04:17.271Z,1.57
2022-09-17T22:06:46.532Z,1.30
2022-09-17T22:09:23.296Z,1.43
2022-09-17T22:11:52.168Z,1.40
2022-09-17T22:14:22.474Z,1.50
2022-09-17T22:16:58.710Z,1.60
2022-09-17T22:19:26.093Z,1.50
2022-09-17T22:21:55.461Z,1.57
2022-09-17T22:24:24.008Z,1.63
2022-09-17T22:26:57.402Z,1.30
2022-09-17T22:29:26.989Z,1.60
2022-09-17T22:31:53.706Z,1.53
2022-09-17T22:34:22.979Z,1.43
2022-09-17T22:36:50.206Z,1.30
2022-09-17T22:39:18.937Z,1.57
2022-09-17T22:41:46.029Z,1.60
2022-09-17T22:44:19.318Z,1.50
2022-09-17T22:46:50.275Z,1.37
2022-09-17T22:49:18.553Z,1.70
2022-09-17T22:51:46.991Z,2.17
2022-09-17T22:54:18.435Z,1.43
2022-09-17T22:56:47.546Z,1.40
2022-09-17T22:59:14.360Z,1.53
2022-09-17T23:01:41.595Z,1.67
2022-09-17T23:04:08.686Z,1.50
2022-09-17T23:06:38.479Z,1.53
2022-09-17T23:09:06.680Z,1.30
2022-09-17T23:11:39.417Z,1.60
2022-09-17T23:14:11.897Z,1.70
2022-09-17T23:16:46.791Z,2.07
2022-09-17T23:19:16.583Z,1.63
2022-09-17T23:21:44.486Z,1.70
2022-09-17T23:24:19.072Z,1.70
2022-09-17T23:26:46.337Z,1.57
2022-09-17T23:29:13.470Z,1.80
2022-09-17T23:31:40.715Z,1.37
2022-09-17T23:34:07.579Z,1.57
2022-09-17T23:36:38.010Z,1.73
2022-09-17T23:39:07.039Z,1.43
2022-09-17T23:41:37.977Z,1.40
2022-09-17T23:44:13.773Z,1.50
2022-09-17T23:46:42.745Z,1.53
2022-09-17T23:49:12.524Z,1.83
2022-09-17T23:51:39.244Z,1.67
2022-09-17T23:54:07.091Z,1.70
2022-09-17T23:56:34.935Z,1.73
2022-09-17T23:59:03.797Z,2.03
